Terminal Aerodrome Forecast
Issued by NWS Pittsburgh, PA

Current Version | Previous Version | Text Only | Print | Product List | Glossary Off
Versions: 1 2 3 4 5 6 7 8 9 10 11 12 13 14 15 16 17 18 19 20 21 22 23 24 25 26

000
FTUS41 KPBZ 201726
TAFPIT
TAF
KPIT 201726Z 2018/2124 33008KT P6SM SCT025 BKN035
     FM210000 31004KT P6SM BKN150
     FM210900 01002KT P6SM VCSH OVC035
     FM211400 34005KT P6SM BKN050=

USA.gov is the U.S. government's official web portal to all federal, state and local government web resources and services.